Route Details

Aircraft Information
Group: European Fleet
Types: A30F, A31F, B738
Route Data
Distance: 145nm
Duration: 0h 40m
Origin METAR: EDDW 010550Z AUTO 26019KT 9999 SCT016 05/03 Q1010 TEMPO 27020G30KT SHRA BKN012CB
Dest. METAR: EDDK 010550Z AUTO 27014KT 9999 SCT024 06/02 Q1020 NOSIG
Freight Data
(for Feb 1, 2023)
Load Factor:
49%
Manifested Cargo: 34,516lbs
Financial History
Total Freight: 812,133lbs
Average Load: 0lbs/flt
Fuel Used: 170,757lbs
Avg. Fuel Used: 0lbs/flt
Fuel Expense: $72,902
Avg. Fuel Expense: $0
Avg. Fuel Cost: $0/lbs
Total Gross Income: $1,787,196
Pilot Pay: $4,511
Total Expenses: $333,727
Total Revenue: $1,365,746
Average Revenue: $0

Capitol Logistics 552




EDDW
Bremen Airport
Bremen, DE
EDDK
Cologne Bonn Airport
Cologne, DE

Activity Log

Date Flight Route Aircraft Duration
01/22/2023 CPX552 ERLA1M ERLAD Y804 PIROT N850 WRB P12 ESADU T858 KOPAG KOPA2C B738 0h 44m
01/19/2023 CPX552 ERLA1L ERLAD Y804 PIROT N850 WRB P12 ESADU T858 KOPAG KOPA14 B738 0h 56m
12/09/2022 CPX552 ERLA1M ERLAD Y804 PIROT N850 WRB P12 ESADU T858 KOPAG KOPA24 B738 0h 46m
12/03/2022 CPX552 ERLA1M ERLAD Y804 PIROT N850 WRB P12 ESADU T858 KOPAG KOPA06 B738 1h 12m
12/02/2022 CPX552 Not Available B738 1h 09m
11/29/2022 CPX552 ERLA1M ERLAD Y804 PIROT N850 WRB P12 ESADU T858 KOPAG KOPA1N A31F 0h 47m
10/06/2022 CPX552 ERLA3Z ERLAD Y804 PIROT N850 WRB P12 ESADU T858 KOPAG KOPA24 A30F 0h 46m
09/04/2022 CPX552 Not Available B738 0h 54m
08/03/2022 CPX552 ERLA1L ERLAD Y804 PIROT N850 WRB P12 ESADU T858 KOPAG KOPA24 A30F 0h 47m
07/20/2022 CPX552 ERLAD1M ERLAD Y804 PIROT N850 WRB P12 ESADU T858 KOPAG KOPAG24 B738 0h 48m
06/28/2022 CPX906 ERLA1L ERLAD Y804 PIROT N850 WRB P12 ESADU T858 KOPAG KOPA14 B738 0h 53m
06/27/2022 CPX906 ERLA1L ERLAD Y804 PIROT N850 WRB P12 ESADU T858 KOPAG KOPA24 A30F 0h 54m
01/06/2022 CPX906 ERLAD2Z ERLAD Y804 PIROT N850 WRB P12 ESADU T858 KOPAG KOPAG24 B738 0h 50m
12/07/2021 CPX903 ERLA4Q ERLAD Y804 PIROT N850 WRB P12 ESADU T858 KOPAG KOPA14 A31F 0h 50m
12/06/2021 CPX903 ERLA4Q ERLAD Y804 PIROT N850 WRB/N0454F240 P12 ESADU T858 KOPAG KOPA06 B738 0h 46m
12/05/2021 CPX903 ERLA4Q ERLAD Y804 PIROT N850 WRB/N0454F240 P12 ESADU T858 KOPAG KOPA06 B738 40h 00m
09/19/2021 CPX903 ERLAD Y804 PIROT N850 WRB/N0454F240 P12 ESADU T858 KOPAG A31F 0h 39m
09/15/2021 CPX903 ERLA2K ERLAD Y804 PIROT N850 LARBU Z189 RUNER KOPAG KOPA14 A30F 0h 45m
09/13/2021 CPX903 ERLA4Q ERLAD Y804 PIROT N850 WRB/N0454F240 P12 ESADU T858 KOPAG KOPA06 B738 0h 49m